createdAt,value
2022-08-17T00:01:52.146Z,20.10
2022-08-17T00:04:21.601Z,20.10
2022-08-17T00:06:50.556Z,20.10
2022-08-17T00:09:19.488Z,20.10
2022-08-17T00:12:43.786Z,20.00
2022-08-17T00:14:38.654Z,20.00
2022-08-17T00:17:07.247Z,20.00
2022-08-17T00:19:35.260Z,20.00
2022-08-17T00:22:34.308Z,19.90
2022-08-17T00:24:55.257Z,19.90
2022-08-17T00:27:24.584Z,19.90
2022-08-17T00:29:52.589Z,19.90
2022-08-17T00:33:11.986Z,19.80
2022-08-17T00:35:11.647Z,19.80
2022-08-17T00:37:39.779Z,19.80
2022-08-17T00:40:09.430Z,19.70
2022-08-17T00:42:38.985Z,19.70
2022-08-17T00:45:09.288Z,19.70
2022-08-17T00:47:37.408Z,19.60
2022-08-17T00:50:05.872Z,19.60
2022-08-17T00:52:38.331Z,19.50
2022-08-17T00:55:08.138Z,19.50
2022-08-17T00:57:41.638Z,19.50
2022-08-17T01:00:17.351Z,19.50
2022-08-17T01:02:48.001Z,19.40
2022-08-17T01:05:19.418Z,19.40
2022-08-17T01:07:50.895Z,19.40
2022-08-17T01:10:58.301Z,19.40
2022-08-17T01:13:15.011Z,19.40
2022-08-17T01:15:48.923Z,19.40
2022-08-17T01:18:17.265Z,19.30
2022-08-17T01:20:49.331Z,19.30
2022-08-17T01:23:21.229Z,19.20
2022-08-17T01:25:51.824Z,19.20
2022-08-17T01:28:33.398Z,19.10
2022-08-17T01:31:09.916Z,19.10
2022-08-17T01:33:39.157Z,19.10
2022-08-17T01:36:09.249Z,19.10
2022-08-17T01:38:40.436Z,19.10
2022-08-17T01:41:12.238Z,19.00
2022-08-17T01:43:46.333Z,19.00
2022-08-17T01:46:17.238Z,19.00
2022-08-17T01:48:47.618Z,19.00
2022-08-17T01:51:16.658Z,19.00
2022-08-17T01:53:50.821Z,18.90
2022-08-17T01:56:22.901Z,18.90
2022-08-17T01:58:51.867Z,18.90
2022-08-17T02:01:22.827Z,18.80
2022-08-17T02:03:59.426Z,18.80
2022-08-17T02:06:45.119Z,18.80
2022-08-17T02:09:17.262Z,18.70
2022-08-17T02:11:46.478Z,18.70
2022-08-17T02:14:14.937Z,18.70
2022-08-17T02:16:43.253Z,18.70
2022-08-17T02:19:14.096Z,18.70
2022-08-17T02:21:44.025Z,18.70
2022-08-17T02:24:16.957Z,18.70
2022-08-17T02:26:46.242Z,18.70
2022-08-17T02:29:15.810Z,18.70
2022-08-17T02:31:44.575Z,18.60
2022-08-17T02:34:13.977Z,18.60
2022-08-17T02:36:42.085Z,18.60
2022-08-17T02:39:13.210Z,18.50
2022-08-17T02:41:42.532Z,18.50
2022-08-17T02:44:10.523Z,18.50
2022-08-17T02:46:38.723Z,18.50
2022-08-17T02:49:06.741Z,18.50
2022-08-17T02:51:35.257Z,18.50
2022-08-17T02:54:41.274Z,18.50
2022-08-17T02:56:53.009Z,18.50
2022-08-17T02:59:21.219Z,18.50
2022-08-17T03:01:49.237Z,18.50
2022-08-17T03:04:17.314Z,18.50
2022-08-17T03:06:45.631Z,18.40
2022-08-17T03:09:13.657Z,18.40
2022-08-17T03:11:41.640Z,18.40
2022-08-17T03:14:11.065Z,18.40
2022-08-17T03:16:39.086Z,18.40
2022-08-17T03:19:07.328Z,18.40
2022-08-17T03:21:35.867Z,18.40
2022-08-17T03:24:08.943Z,18.30
2022-08-17T03:26:37.577Z,18.30
2022-08-17T03:29:05.639Z,18.30
2022-08-17T03:31:37.107Z,18.30
2022-08-17T03:34:05.297Z,18.30
2022-08-17T03:36:36.041Z,18.30
2022-08-17T03:39:05.468Z,18.30
2022-08-17T03:41:34.215Z,18.20
2022-08-17T03:44:02.182Z,18.20
2022-08-17T03:46:46.890Z,18.20
2022-08-17T03:49:33.836Z,18.20
2022-08-17T03:52:19.175Z,18.20
2022-08-17T03:55:04.680Z,18.20
2022-08-17T03:57:33.350Z,18.20
2022-08-17T04:00:01.352Z,18.10
2022-08-17T04:02:32.380Z,18.10
2022-08-17T04:05:02.431Z,18.10
2022-08-17T04:07:31.994Z,18.10
2022-08-17T04:10:00.039Z,18.10
2022-08-17T04:12:30.995Z,18.10
2022-08-17T04:14:59.507Z,18.10
2022-08-17T04:17:29.606Z,18.10
2022-08-17T04:19:58.434Z,18.10
2022-08-17T04:22:32.597Z,18.10
2022-08-17T04:25:08.856Z,18.10
2022-08-17T04:27:37.278Z,18.10
2022-08-17T04:30:07.371Z,18.10
2022-08-17T04:33:05.486Z,18.10
2022-08-17T04:35:38.440Z,18.10
2022-08-17T04:38:08.803Z,18.10
2022-08-17T04:40:54.941Z,18.10
2022-08-17T04:43:26.186Z,18.10
2022-08-17T04:45:57.182Z,18.10
2022-08-17T04:48:35.695Z,18.10
2022-08-17T04:51:07.393Z,18.20
2022-08-17T04:53:37.281Z,18.20
2022-08-17T04:56:05.813Z,18.20
2022-08-17T04:58:34.003Z,18.20
2022-08-17T05:01:02.709Z,18.20
2022-08-17T05:03:31.001Z,18.20
2022-08-17T05:05:59.100Z,18.20
2022-08-17T05:08:27.650Z,18.30
2022-08-17T05:10:57.124Z,18.30
2022-08-17T05:13:28.055Z,18.30
2022-08-17T05:15:57.654Z,18.40
2022-08-17T05:18:26.024Z,18.40
2022-08-17T05:20:54.430Z,18.40
2022-08-17T05:23:24.427Z,18.40
2022-08-17T05:25:55.728Z,18.40
2022-08-17T05:28:28.481Z,18.40
2022-08-17T05:31:01.941Z,18.40
2022-08-17T05:33:32.502Z,18.40
2022-08-17T05:36:01.474Z,18.40
2022-08-17T05:38:30.906Z,18.30
2022-08-17T05:41:00.176Z,18.30
2022-08-17T05:43:31.580Z,18.30
2022-08-17T05:46:04.999Z,18.30
2022-08-17T05:48:39.968Z,18.30
2022-08-17T05:51:31.265Z,18.30
2022-08-17T05:54:09.382Z,18.30
2022-08-17T05:56:57.122Z,18.40
2022-08-17T05:59:36.267Z,18.50
2022-08-17T06:02:17.920Z,18.60
2022-08-17T06:04:58.617Z,18.70
2022-08-17T06:07:37.355Z,18.80
2022-08-17T06:10:11.959Z,18.80
2022-08-17T06:12:55.723Z,19.00
2022-08-17T06:15:32.267Z,19.00
2022-08-17T06:18:04.886Z,19.10
2022-08-17T06:20:43.622Z,19.20
2022-08-17T06:23:25.906Z,19.30
2022-08-17T06:25:59.268Z,19.40
2022-08-17T06:28:32.868Z,19.40
2022-08-17T06:31:08.938Z,19.50
2022-08-17T06:33:39.381Z,19.60
2022-08-17T06:36:23.793Z,19.60
2022-08-17T06:39:06.106Z,19.80
2022-08-17T06:41:47.000Z,19.90
2022-08-17T06:44:43.336Z,19.90
2022-08-17T06:47:13.571Z,19.90
2022-08-17T06:49:49.553Z,19.90
2022-08-17T06:52:45.281Z,20.00
2022-08-17T06:55:18.947Z,20.10
2022-08-17T06:57:54.726Z,20.10
2022-08-17T07:00:26.057Z,20.20
2022-08-17T07:02:58.839Z,20.40
2022-08-17T07:05:33.279Z,20.60
2022-08-17T07:08:05.751Z,20.70
2022-08-17T07:10:38.859Z,20.90
2022-08-17T07:13:34.218Z,21.00
2022-08-17T07:16:13.153Z,21.10
2022-08-17T07:18:43.818Z,21.20
2022-08-17T07:21:26.191Z,21.30
2022-08-17T07:24:26.338Z,21.50
2022-08-17T07:27:21.526Z,21.60
2022-08-17T07:29:53.703Z,21.70
2022-08-17T07:32:26.366Z,21.80
2022-08-17T07:35:11.362Z,21.90
2022-08-17T07:37:41.053Z,22.10
2022-08-17T07:40:22.976Z,22.40
2022-08-17T07:43:12.536Z,22.50
2022-08-17T07:46:18.049Z,22.60
2022-08-17T07:48:49.666Z,22.50
2022-08-17T07:51:26.570Z,22.60
2022-08-17T07:54:13.171Z,22.60
2022-08-17T07:56:46.262Z,22.60
2022-08-17T07:59:18.048Z,22.60
2022-08-17T08:02:05.400Z,22.70
2022-08-17T08:04:59.091Z,22.70
2022-08-17T08:07:32.193Z,22.70
2022-08-17T08:10:09.530Z,22.90
2022-08-17T08:12:39.738Z,22.90
2022-08-17T08:15:18.965Z,22.90
2022-08-17T08:17:52.023Z,23.10
2022-08-17T08:20:37.599Z,23.20
2022-08-17T08:23:24.298Z,23.20
2022-08-17T08:26:00.793Z,23.40
2022-08-17T08:28:35.171Z,23.50
2022-08-17T08:31:09.698Z,23.70
2022-08-17T08:33:51.505Z,23.80
2022-08-17T08:37:14.049Z,24.10
2022-08-17T08:39:38.429Z,24.30
2022-08-17T08:42:13.983Z,24.50
2022-08-17T08:44:59.926Z,24.70
2022-08-17T08:47:55.170Z,24.80
2022-08-17T08:50:38.172Z,24.90
2022-08-17T08:53:33.091Z,24.90
2022-08-17T08:56:10.734Z,25.10
2022-08-17T08:58:48.334Z,25.30
2022-08-17T09:01:23.028Z,25.50
2022-08-17T09:04:21.759Z,25.60
2022-08-17T09:07:08.102Z,25.80
2022-08-17T09:09:45.668Z,25.90
2022-08-17T09:12:26.155Z,26.10
2022-08-17T09:15:01.597Z,26.30
2022-08-17T09:17:37.541Z,26.20
2022-08-17T09:20:27.972Z,26.20
2022-08-17T09:26:01.955Z,26.40
2022-08-17T09:28:35.385Z,26.60
2022-08-17T09:31:08.929Z,26.70
2022-08-17T09:33:43.252Z,26.90
2022-08-17T09:36:16.946Z,27.00
2022-08-17T09:38:54.371Z,27.20
2022-08-17T09:41:27.733Z,27.40
2022-08-17T09:44:22.818Z,27.60
2022-08-17T09:46:56.365Z,27.60
2022-08-17T09:49:31.994Z,27.60
2022-08-17T09:52:06.693Z,27.70
2022-08-17T09:54:40.380Z,27.70
2022-08-17T09:57:31.811Z,27.70
2022-08-17T10:00:16.099Z,27.70
2022-08-17T10:02:56.064Z,27.70
2022-08-17T10:05:28.112Z,27.60
2022-08-17T10:08:09.256Z,27.70
2022-08-17T10:10:56.278Z,27.70
2022-08-17T10:13:34.774Z,27.80
2022-08-17T10:16:14.413Z,27.80
2022-08-17T10:18:51.665Z,27.80
2022-08-17T10:21:38.893Z,27.80
2022-08-17T10:24:28.234Z,27.90
2022-08-17T10:26:59.128Z,27.90
2022-08-17T10:29:44.158Z,28.00
2022-08-17T10:32:26.717Z,28.20
2022-08-17T10:35:16.006Z,28.30
2022-08-17T10:38:08.341Z,28.40
2022-08-17T10:40:45.451Z,28.60
2022-08-17T10:43:38.496Z,28.60
2022-08-17T10:46:30.905Z,28.60
2022-08-17T10:49:24.796Z,28.50
2022-08-17T10:51:54.558Z,28.60
2022-08-17T10:54:50.133Z,28.70
2022-08-17T10:57:40.221Z,28.90
2022-08-17T11:00:16.207Z,28.90
2022-08-17T11:02:49.457Z,28.80
2022-08-17T11:05:48.900Z,28.80
2022-08-17T11:08:48.553Z,28.80
2022-08-17T11:11:37.216Z,28.70
2022-08-17T11:14:28.179Z,28.70
2022-08-17T11:17:17.440Z,28.80
2022-08-17T11:20:05.446Z,28.90
2022-08-17T11:23:06.467Z,29.00
2022-08-17T11:25:39.282Z,29.00
2022-08-17T11:28:15.452Z,29.20
2022-08-17T11:30:52.162Z,29.30
2022-08-17T11:33:54.347Z,29.40
2022-08-17T11:36:42.147Z,29.30
2022-08-17T11:39:36.017Z,29.30
2022-08-17T11:42:07.091Z,29.40
2022-08-17T11:44:46.593Z,29.50
2022-08-17T11:47:38.438Z,29.70
2022-08-17T11:50:59.766Z,29.70
2022-08-17T11:54:32.811Z,29.70
2022-08-17T11:56:59.081Z,29.70
2022-08-17T11:59:59.529Z,29.70
2022-08-17T12:02:47.459Z,29.70
2022-08-17T12:05:34.016Z,29.70
2022-08-17T12:08:15.997Z,29.70
2022-08-17T12:10:57.019Z,29.60
2022-08-17T12:13:30.529Z,29.60
2022-08-17T12:16:07.251Z,29.60
2022-08-17T12:18:40.139Z,29.60
2022-08-17T12:21:28.413Z,29.70
2022-08-17T12:24:05.693Z,29.70
2022-08-17T12:26:37.039Z,29.70
2022-08-17T12:29:18.144Z,29.80
2022-08-17T12:32:03.418Z,30.00
2022-08-17T12:34:37.854Z,30.10
2022-08-17T12:37:09.296Z,30.10
2022-08-17T12:39:40.612Z,30.20
2022-08-17T12:42:23.999Z,30.20
2022-08-17T12:44:53.922Z,30.20
2022-08-17T12:47:23.401Z,30.30
2022-08-17T12:49:54.283Z,30.30
2022-08-17T12:52:24.976Z,30.30
2022-08-17T12:54:57.830Z,30.30
2022-08-17T12:57:27.947Z,30.40
2022-08-17T13:00:02.695Z,30.40
2022-08-17T13:02:47.540Z,30.50
2022-08-17T13:05:22.110Z,30.60
2022-08-17T13:07:52.968Z,30.50
2022-08-17T13:10:30.077Z,30.50
2022-08-17T13:13:04.801Z,30.50
2022-08-17T13:15:38.254Z,30.50
2022-08-17T13:18:39.370Z,30.40
2022-08-17T13:21:12.197Z,30.30
2022-08-17T13:23:44.815Z,30.20
2022-08-17T13:26:29.520Z,30.20
2022-08-17T13:28:57.972Z,30.20
2022-08-17T13:31:52.280Z,30.20
2022-08-17T13:34:38.126Z,30.20
2022-08-17T13:37:30.922Z,30.20
2022-08-17T13:40:03.019Z,30.20
2022-08-17T13:42:51.574Z,30.20
2022-08-17T13:45:39.253Z,30.10
2022-08-17T13:48:14.495Z,30.10
2022-08-17T13:50:45.016Z,30.10
2022-08-17T13:53:23.170Z,30.00
2022-08-17T13:55:53.446Z,30.10
2022-08-17T13:58:24.975Z,30.10
2022-08-17T14:00:53.555Z,30.10
2022-08-17T14:03:24.216Z,30.20
2022-08-17T14:05:54.098Z,30.20
2022-08-17T14:08:25.603Z,30.20
2022-08-17T14:11:01.594Z,30.20
2022-08-17T14:13:30.173Z,30.20
2022-08-17T14:15:58.157Z,30.20
2022-08-17T14:18:41.995Z,30.20
2022-08-17T14:21:16.144Z,30.20
2022-08-17T14:23:54.341Z,30.20
2022-08-17T14:26:23.306Z,30.20
2022-08-17T14:28:56.532Z,30.10
2022-08-17T14:31:24.942Z,30.10
2022-08-17T14:33:55.351Z,30.00
2022-08-17T14:36:23.539Z,29.90
2022-08-17T14:38:51.799Z,29.90
2022-08-17T14:41:23.556Z,29.80
2022-08-17T14:43:53.724Z,29.80
2022-08-17T14:46:22.985Z,29.70
2022-08-17T14:48:57.296Z,29.60
2022-08-17T14:51:30.470Z,29.50
2022-08-17T14:53:59.614Z,29.40
2022-08-17T14:56:27.817Z,29.40
2022-08-17T14:59:00.214Z,29.30
2022-08-17T15:01:28.523Z,29.30
2022-08-17T15:03:56.629Z,29.30
2022-08-17T15:06:26.229Z,29.20
2022-08-17T15:08:54.433Z,29.10
2022-08-17T15:11:22.425Z,28.90
2022-08-17T15:13:52.673Z,28.80
2022-08-17T15:16:21.488Z,28.70
2022-08-17T15:21:22.133Z,28.20
2022-08-17T15:23:52.159Z,28.10
2022-08-17T15:26:26.071Z,28.10
2022-08-17T15:28:56.972Z,28.00
2022-08-17T15:31:31.863Z,27.60
2022-08-17T15:34:01.178Z,27.10
2022-08-17T15:36:29.709Z,27.00
2022-08-17T15:38:59.884Z,26.90
2022-08-17T15:41:31.247Z,27.00
2022-08-17T15:44:00.407Z,26.90
2022-08-17T15:46:28.499Z,26.90
2022-08-17T15:48:59.824Z,26.80
2022-08-17T15:51:30.777Z,26.70
2022-08-17T15:54:04.467Z,26.70
2022-08-17T15:56:47.525Z,26.70
2022-08-17T15:59:15.956Z,26.60
2022-08-17T16:03:15.957Z,26.50
2022-08-17T16:04:34.736Z,26.40
2022-08-17T16:07:02.805Z,26.40
2022-08-17T16:09:32.504Z,26.40
2022-08-17T16:12:10.419Z,26.30
2022-08-17T16:14:38.453Z,26.20
2022-08-17T16:17:39.912Z,26.10
2022-08-17T16:19:57.104Z,26.00
2022-08-17T16:22:46.052Z,25.80
2022-08-17T16:25:18.826Z,25.70
2022-08-17T16:27:47.560Z,25.60
2022-08-17T16:30:18.106Z,25.40
2022-08-17T16:38:14.978Z,25.00
2022-08-17T16:40:44.525Z,25.10
2022-08-17T16:43:12.474Z,25.10
2022-08-17T16:45:42.728Z,25.10
2022-08-17T16:48:11.824Z,25.20
2022-08-17T16:50:42.537Z,25.30
2022-08-17T16:53:30.610Z,25.10
2022-08-17T16:55:59.984Z,25.00
2022-08-17T16:58:28.000Z,24.90
2022-08-17T17:00:59.732Z,24.90
2022-08-17T17:03:31.245Z,24.90
2022-08-17T17:06:07.152Z,25.00
2022-08-17T17:08:44.046Z,25.10
2022-08-17T17:11:18.117Z,25.00
2022-08-17T17:13:54.068Z,25.00
2022-08-17T17:16:27.382Z,25.00
2022-08-17T17:19:06.356Z,24.90
2022-08-17T17:21:39.835Z,24.80
2022-08-17T17:24:14.935Z,24.70
2022-08-17T17:27:07.517Z,24.70
2022-08-17T17:29:47.589Z,24.70
2022-08-17T17:32:22.558Z,24.60
2022-08-17T17:34:55.608Z,24.60
2022-08-17T17:37:29.581Z,24.70
2022-08-17T17:40:02.614Z,24.70
2022-08-17T17:42:33.618Z,24.70
2022-08-17T17:45:08.091Z,24.60
2022-08-17T17:47:37.497Z,24.60
2022-08-17T17:50:07.911Z,24.60
2022-08-17T17:52:47.473Z,24.60
2022-08-17T17:55:46.383Z,24.60
2022-08-17T17:58:33.260Z,24.60
2022-08-17T18:01:34.278Z,24.60
2022-08-17T18:04:21.135Z,24.60
2022-08-17T18:07:15.657Z,24.50
2022-08-17T18:10:01.149Z,24.50
2022-08-17T18:12:37.400Z,24.50
2022-08-17T18:15:23.078Z,24.50
2022-08-17T18:18:23.782Z,24.50
2022-08-17T18:20:56.269Z,24.50
2022-08-17T18:23:28.498Z,24.50
2022-08-17T18:25:58.705Z,24.50
2022-08-17T18:28:30.063Z,24.50
2022-08-17T18:31:10.140Z,24.50
2022-08-17T18:33:42.343Z,24.50
2022-08-17T18:36:11.532Z,24.50
2022-08-17T18:38:42.111Z,24.50
2022-08-17T18:41:20.777Z,24.40
2022-08-17T18:44:01.725Z,24.30
2022-08-17T18:46:35.345Z,24.30
2022-08-17T18:49:07.424Z,24.30
2022-08-17T18:51:40.978Z,24.20
2022-08-17T18:54:23.142Z,24.20
2022-08-17T18:56:54.379Z,24.00
2022-08-17T18:59:33.991Z,23.80
2022-08-17T19:02:27.394Z,23.60
2022-08-17T19:05:11.671Z,23.50
2022-08-17T19:07:42.104Z,23.50
2022-08-17T19:10:24.117Z,23.40
2022-08-17T19:13:00.375Z,23.50
2022-08-17T19:15:34.050Z,23.50
2022-08-17T19:18:15.740Z,23.50
2022-08-17T19:20:48.865Z,23.30
2022-08-17T19:23:25.375Z,23.10
2022-08-17T19:25:58.557Z,23.20
2022-08-17T19:28:30.672Z,23.20
2022-08-17T19:31:01.966Z,23.20
2022-08-17T19:33:33.785Z,23.20
2022-08-17T19:36:09.435Z,23.10
2022-08-17T19:38:50.844Z,23.10
2022-08-17T19:41:25.812Z,23.10
2022-08-17T19:44:17.668Z,23.00
2022-08-17T19:46:56.386Z,22.90
2022-08-17T19:49:41.861Z,22.80
2022-08-17T19:52:24.275Z,22.70
2022-08-17T19:54:58.945Z,22.70
2022-08-17T19:57:40.699Z,22.70
2022-08-17T20:00:12.227Z,22.70
2022-08-17T20:02:52.655Z,22.70
2022-08-17T20:05:28.144Z,22.60
2022-08-17T20:08:00.173Z,22.60
2022-08-17T20:10:35.512Z,22.60
2022-08-17T20:13:10.783Z,22.60
2022-08-17T20:15:43.234Z,22.60
2022-08-17T20:18:19.170Z,22.60
2022-08-17T20:20:55.941Z,22.60
2022-08-17T20:23:35.977Z,22.60
2022-08-17T20:26:14.878Z,22.60
2022-08-17T20:29:37.788Z,22.60
2022-08-17T20:32:27.313Z,22.60
2022-08-17T20:35:19.063Z,22.60
2022-08-17T20:37:56.372Z,22.50
2022-08-17T20:40:28.531Z,22.40
2022-08-17T20:42:58.525Z,22.30
2022-08-17T20:45:57.671Z,22.30
2022-08-17T20:48:38.432Z,22.20
2022-08-17T20:51:30.572Z,22.10
2022-08-17T20:54:34.480Z,22.10
2022-08-17T20:57:06.094Z,22.10
2022-08-17T21:00:00.042Z,22.00
2022-08-17T21:02:30.328Z,21.90
2022-08-17T21:05:34.856Z,21.90
2022-08-17T21:08:15.371Z,21.80
2022-08-17T21:10:46.053Z,21.80
2022-08-17T21:13:50.958Z,21.90
2022-08-17T21:16:35.686Z,21.80
2022-08-17T21:19:22.930Z,21.80
2022-08-17T21:22:04.272Z,21.80
2022-08-17T21:24:43.478Z,21.60
2022-08-17T21:27:27.204Z,21.60
2022-08-17T21:30:23.399Z,21.60
2022-08-17T21:33:21.433Z,21.70
2022-08-17T21:35:58.666Z,21.70
2022-08-17T21:38:35.536Z,21.70
2022-08-17T21:41:03.887Z,21.70
2022-08-17T21:43:34.220Z,21.60
2022-08-17T21:46:06.329Z,21.60
2022-08-17T21:48:43.714Z,21.60
2022-08-17T21:51:17.636Z,21.60
2022-08-17T21:53:49.950Z,21.60
2022-08-17T21:56:28.498Z,21.50
2022-08-17T21:59:02.586Z,21.50
2022-08-17T22:01:34.855Z,21.50
2022-08-17T22:04:06.552Z,21.50
2022-08-17T22:06:38.225Z,21.40
2022-08-17T22:09:13.867Z,21.50
2022-08-17T22:12:08.190Z,21.50
2022-08-17T22:14:52.776Z,21.40
2022-08-17T22:17:25.949Z,21.40
2022-08-17T22:19:57.600Z,21.40
2022-08-17T22:22:30.787Z,21.40
2022-08-17T22:25:02.894Z,21.40
2022-08-17T22:27:54.565Z,21.40
2022-08-17T22:30:30.481Z,21.40
2022-08-17T22:33:00.862Z,21.40
2022-08-17T22:35:39.670Z,21.40
2022-08-17T22:38:32.564Z,21.40
2022-08-17T22:41:38.116Z,21.40
2022-08-17T22:44:17.239Z,21.40
2022-08-17T22:46:56.478Z,21.40
2022-08-17T22:49:29.920Z,21.40
2022-08-17T22:52:18.412Z,21.30
2022-08-17T22:55:09.176Z,21.30
2022-08-17T22:57:55.755Z,21.30
2022-08-17T23:00:34.348Z,21.30
2022-08-17T23:03:19.105Z,21.30
2022-08-17T23:06:02.315Z,21.30
2022-08-17T23:08:30.757Z,21.20
2022-08-17T23:11:00.379Z,21.10
2022-08-17T23:13:28.762Z,21.10
2022-08-17T23:15:56.710Z,21.00
2022-08-17T23:18:25.223Z,21.00
2022-08-17T23:20:55.385Z,20.90
2022-08-17T23:23:23.928Z,20.90
2022-08-17T23:25:52.011Z,20.90
2022-08-17T23:28:20.889Z,20.80
2022-08-17T23:30:49.204Z,20.80
2022-08-17T23:33:25.607Z,20.80
2022-08-17T23:35:54.952Z,20.80
2022-08-17T23:38:25.604Z,20.70
2022-08-17T23:40:53.862Z,20.70
2022-08-17T23:43:25.748Z,20.80
2022-08-17T23:46:00.623Z,20.80
2022-08-17T23:48:35.715Z,20.80
2022-08-17T23:51:12.305Z,20.70
2022-08-17T23:53:44.214Z,20.70
2022-08-17T23:56:13.045Z,20.60
2022-08-17T23:58:43.018Z,20.60
